Time;durP1;ratioP1;P1;durP2;ratioP2;P2;SDS_P1;SDS_P2;PMS_P1;PMS_P2;Temp;Humidity;BMP_temperature;BMP_pressure;BME280_temperature;BME280_humidity;BME280_pressure;Samples;Min_cycle;Max_cycle;Signal;HPM_P1;HPM_P2
2023/02/05 00:00:53;;;;;;;48.47;18.02;;;;;;;-3.29;100.00;103835.06;5013416;28;20121;-78
2023/02/05 00:03:19;;;;;;;59.35;18.40;;;;;;;-3.14;100.00;103834.97;4980405;28;20171;-76
2023/02/05 00:05:44;;;;;;;58.58;18.50;;;;;;;-3.15;100.00;103842.84;5013239;28;20036;-77
2023/02/05 00:08:10;;;;;;;44.85;16.73;;;;;;;-3.35;100.00;103809.69;5013266;28;20384;-77
2023/02/05 00:10:36;;;;;;;29.42;11.45;;;;;;;-3.36;100.00;103800.06;5013075;28;20065;-77
2023/02/05 00:13:01;;;;;;;32.40;9.60;;;;;;;-3.38;100.00;103803.56;5012808;28;20033;-77
2023/02/05 00:15:27;;;;;;;38.20;13.60;;;;;;;-3.38;100.00;103820.22;5011947;28;20032;-77
2023/02/05 00:17:53;;;;;;;19.70;8.85;;;;;;;-3.44;100.00;103822.00;4980769;28;20541;-77
2023/02/05 00:20:19;;;;;;;23.63;8.05;;;;;;;-3.45;100.00;103786.06;4996369;28;20061;-77
2023/02/05 00:22:44;;;;;;;27.45;10.38;;;;;;;-3.14;100.00;103781.47;4996548;28;20072;-76
2023/02/05 00:25:10;;;;;;;34.55;11.70;;;;;;;-3.07;100.00;103783.13;5013118;28;20134;-76
2023/02/05 00:27:36;;;;;;;26.00;9.00;;;;;;;-3.25;100.00;103765.75;4979889;28;20112;-77
2023/02/05 00:30:02;;;;;;;24.70;10.27;;;;;;;-3.28;100.00;103765.78;4980308;28;20469;-76
2023/02/05 00:32:27;;;;;;;7.03;3.53;;;;;;;-3.42;100.00;103759.75;5029002;28;20176;-78
2023/02/05 00:34:53;;;;;;;23.77;11.40;;;;;;;-3.50;100.00;103772.94;4995598;28;20076;-78
2023/02/05 00:37:19;;;;;;;26.95;10.13;;;;;;;-3.28;100.00;103812.25;4980458;28;20037;-78
2023/02/05 00:39:44;;;;;;;10.52;5.28;;;;;;;-3.23;100.00;103805.19;4980196;28;20507;-77
2023/02/05 00:42:10;;;;;;;10.85;5.53;;;;;;;-2.98;100.00;103825.19;4996392;28;20460;-78
2023/02/05 00:44:35;;;;;;;10.90;4.72;;;;;;;-2.76;100.00;103846.06;5012744;28;20038;-77
2023/02/05 00:47:01;;;;;;;16.00;5.68;;;;;;;-2.69;100.00;103843.38;4996047;28;20046;-78
2023/02/05 00:49:27;;;;;;;5.38;2.80;;;;;;;-2.66;100.00;103855.63;4996472;28;20042;-77
2023/02/05 00:51:52;;;;;;;8.02;3.13;;;;;;;-2.59;100.00;103877.50;5012164;28;20030;-79
2023/02/05 00:54:18;;;;;;;9.88;4.05;;;;;;;-2.81;100.00;103872.44;4980261;28;20034;-77
2023/02/05 00:56:47;;;;;;;3.95;1.67;;;;;;;-2.85;100.00;103894.41;5012581;28;20085;-77
2023/02/05 00:59:12;;;;;;;8.80;2.95;;;;;;;-2.75;100.00;103932.97;4995762;28;20085;-78
2023/02/05 01:01:38;;;;;;;9.25;4.28;;;;;;;-2.84;100.00;103942.69;5012417;28;20083;-76
2023/02/05 01:04:04;;;;;;;7.40;3.95;;;;;;;-3.05;100.00;103938.44;4996095;28;20058;-77
2023/02/05 01:06:29;;;;;;;2.03;1.83;;;;;;;-3.00;100.00;103937.53;4980302;28;20472;-77
2023/02/05 01:08:55;;;;;;;7.88;2.63;;;;;;;-2.91;100.00;103944.47;4996411;28;20388;-77
2023/02/05 01:11:20;;;;;;;3.13;2.38;;;;;;;-2.76;100.00;103961.94;4995968;28;20476;-77
2023/02/05 01:13:46;;;;;;;2.67;1.88;;;;;;;-2.58;100.00;103950.41;4996005;28;20026;-77
2023/02/05 01:16:12;;;;;;;8.77;2.15;;;;;;;-2.45;100.00;103941.50;5011541;28;20394;-77
2023/02/05 01:18:40;;;;;;;7.13;2.33;;;;;;;-2.57;100.00;103938.97;4996280;28;20033;-77
2023/02/05 01:21:05;;;;;;;5.32;1.77;;;;;;;-2.58;100.00;103945.13;4996540;28;20092;-77
2023/02/05 01:23:31;;;;;;;4.22;2.30;;;;;;;-2.68;100.00;103950.47;5011797;28;20061;-77
2023/02/05 01:25:57;;;;;;;6.95;2.63;;;;;;;-2.96;100.00;103938.41;5012409;28;20034;-76
2023/02/05 01:28:22;;;;;;;6.03;2.22;;;;;;;-3.04;100.00;103964.78;4994867;28;20551;-77
2023/02/05 01:30:49;;;;;;;9.48;2.30;;;;;;;-3.08;100.00;103963.03;5012415;28;20045;-77
2023/02/05 01:33:15;;;;;;;5.93;2.30;;;;;;;-3.07;100.00;103959.50;4995910;28;20038;-78
2023/02/05 01:35:43;;;;;;;4.80;1.77;;;;;;;-3.10;100.00;103962.16;5011308;28;20396;-77
2023/02/05 01:38:12;;;;;;;2.80;0.90;;;;;;;-3.17;100.00;103971.00;4996781;28;20034;-77
2023/02/05 01:40:38;;;;;;;1.48;1.02;;;;;;;-3.29;100.00;103965.78;4994892;28;20038;-77
2023/02/05 01:43:10;;;;;;;6.35;2.55;;;;;;;-3.24;100.00;103985.91;4995699;28;20045;-77
2023/02/05 01:45:49;;;;;;;3.58;1.63;;;;;;;-3.21;100.00;104009.59;5011709;28;20038;-78
2023/02/05 01:48:22;;;;;;;2.00;1.60;;;;;;;-3.39;100.00;104005.25;5012127;28;20088;-77
2023/02/05 01:50:56;;;;;;;7.90;2.45;;;;;;;-3.30;100.00;104029.81;4995912;28;20061;-77
2023/02/05 01:53:27;;;;;;;;;;;;;;;-3.32;100.00;104037.72;4979544;28;20221;-77
2023/02/05 01:56:09;;;;;;;7.57;2.30;;;;;;;-3.49;100.00;104034.25;5015460;28;19913;-77
2023/02/05 01:58:59;;;;;;;2.95;1.15;;;;;;;-3.61;100.00;104022.88;4983277;28;20029;-77
2023/02/05 02:01:25;;;;;;;1.40;1.30;;;;;;;-3.67;100.00;104004.50;4983132;28;20038;-77
2023/02/05 02:03:53;;;;;;;4.97;1.73;;;;;;;-3.63;100.00;103973.78;4999339;28;20049;-77
2023/02/05 02:06:19;;;;;;;4.35;1.80;;;;;;;-3.58;100.00;103983.41;5014626;28;20112;-77
2023/02/05 02:08:44;;;;;;;3.88;2.17;;;;;;;-3.70;100.00;103985.22;4999193;28;20483;-77
2023/02/05 02:11:12;;;;;;;1.77;1.33;;;;;;;-3.78;100.00;103998.41;4999262;28;20044;-77
2023/02/05 02:13:39;;;;;;;8.98;3.00;;;;;;;-3.86;100.00;104001.03;4998632;28;20391;-77
2023/02/05 02:16:05;;;;;;;4.70;3.10;;;;;;;-3.97;100.00;103997.53;5015242;28;20037;-77
2023/02/05 02:18:32;;;;;;;32.53;9.57;;;;;;;-3.88;100.00;104012.44;4981865;28;20042;-78
2023/02/05 02:21:20;;;;;;;12.95;5.53;;;;;;;-3.93;100.00;103977.38;4998729;28;20116;-78
2023/02/05 02:23:58;;;;;;;12.43;4.43;;;;;;;-3.83;100.00;103997.53;5014927;28;20508;-79
2023/02/05 02:26:47;;;;;;;8.32;3.40;;;;;;;-3.84;100.00;103965.06;5031198;28;20543;-77
2023/02/05 02:29:17;;;;;;;7.53;2.55;;;;;;;-3.63;100.00;103984.31;4982743;28;20040;-77
2023/02/05 02:31:50;;;;;;;9.68;2.92;;;;;;;-3.63;100.00;103986.94;4981988;28;20076;-77
2023/02/05 02:34:29;;;;;;;8.23;2.17;;;;;;;-3.62;100.00;103993.97;4998495;28;20033;-78
2023/02/05 02:37:30;;;;;;;4.65;1.92;;;;;;;-3.50;100.00;103987.78;4997890;28;20042;-77
2023/02/05 02:39:57;;;;;;;4.55;2.00;;;;;;;-3.63;100.00;103966.78;4992833;28;20104;-77
2023/02/05 02:42:51;;;;;;;8.63;2.15;;;;;;;-3.65;100.00;103979.06;5014890;28;20486;-77
2023/02/05 02:45:20;;;;;;;1.70;1.60;;;;;;;-3.59;100.00;103978.19;4992101;28;20124;-77
2023/02/05 02:47:49;;;;;;;3.80;2.20;;;;;;;-3.64;100.00;103983.44;5014733;28;20022;-77
2023/02/05 02:50:20;;;;;;;3.17;2.33;;;;;;;-3.76;100.00;104008.03;4998822;28;20103;-77
2023/02/05 02:52:46;;;;;;;13.73;2.78;;;;;;;-4.06;100.00;103982.66;4997541;28;20428;-77
2023/02/05 02:55:13;;;;;;;9.93;2.08;;;;;;;-4.04;100.00;103986.16;5014502;28;20030;-77
2023/02/05 02:57:41;;;;;;;10.48;4.53;;;;;;;-3.83;100.00;103971.25;4997832;28;20496;-77
2023/02/05 03:00:13;;;;;;;11.68;3.33;;;;;;;-3.72;100.00;103947.53;4998110;28;20040;-78
2023/02/05 03:02:40;;;;;;;24.20;5.30;;;;;;;-3.55;100.00;103982.53;4998261;28;20037;-78
2023/02/05 03:05:10;;;;;;;9.35;2.83;;;;;;;-3.66;100.00;103966.78;4997672;28;20395;-77
2023/02/05 03:07:44;;;;;;;4.85;2.40;;;;;;;-3.62;100.00;103955.38;4997593;28;20030;-76
2023/02/05 03:10:43;;;;;;;;;;;;;;;-3.61;100.00;103966.78;5014110;28;20065;-78
2023/02/05 03:13:09;;;;;;;4.32;1.90;;;;;;;-3.86;100.00;103974.75;5013727;28;20005;-78
2023/02/05 03:15:37;;;;;;;2.15;1.83;;;;;;;-4.02;100.00;103949.38;5013554;28;20499;-79
2023/02/05 03:18:03;;;;;;;11.68;2.38;;;;;;;-3.93;100.00;103980.88;5014065;28;20030;-77
2023/02/05 03:20:34;;;;;;;1.65;1.25;;;;;;;-4.04;100.00;103965.13;4998003;28;20361;-77
2023/02/05 03:22:59;;;;;;;7.25;2.72;;;;;;;-3.85;100.00;103976.50;4997525;28;20030;-77
2023/02/05 03:25:27;;;;;;;1.63;1.50;;;;;;;-3.85;100.00;103981.75;5014179;28;20052;-78
2023/02/05 03:27:53;;;;;;;8.00;2.75;;;;;;;-3.91;100.00;103979.13;4981013;28;20053;-77
2023/02/05 03:30:20;;;;;;;7.32;3.03;;;;;;;-3.93;100.00;103990.53;4997380;28;20026;-77
2023/02/05 03:32:59;;;;;;;11.02;2.45;;;;;;;-4.07;100.00;103993.19;4997193;28;20038;-79
2023/02/05 03:35:30;;;;;;;5.10;2.00;;;;;;;-4.05;100.00;103994.94;5013944;28;20096;-78
2023/02/05 03:38:01;;;;;;;5.60;2.38;;;;;;;-4.00;100.00;104005.44;5013964;28;20049;-79
2023/02/05 03:40:33;;;;;;;2.30;1.58;;;;;;;-3.88;100.00;104026.44;5029550;28;20034;-78
2023/02/05 03:43:08;;;;;;;7.57;2.45;;;;;;;-3.81;100.00;104028.19;5014648;28;20034;-78
2023/02/05 03:45:44;;;;;;;0.80;0.80;;;;;;;-3.91;100.00;104030.84;5014357;28;20034;-78
2023/02/05 03:48:31;;;;;;;2.60;2.05;;;;;;;-3.74;100.00;104026.41;4997522;28;20041;-78
2023/02/05 03:51:12;;;;;;;5.28;2.40;;;;;;;-3.80;100.00;104026.44;5029343;28;20032;-79
2023/02/05 03:53:42;;;;;;;4.95;2.30;;;;;;;-3.83;100.00;104035.22;5013887;28;20030;-78
2023/02/05 03:56:18;;;;;;;3.97;1.67;;;;;;;-3.90;100.00;104037.84;5014540;28;20032;-77
2023/02/05 03:58:49;;;;;;;15.05;2.13;;;;;;;-4.17;100.00;104018.59;4981184;28;20084;-77
2023/02/05 04:01:14;;;;;;;5.45;2.20;;;;;;;-4.16;100.00;104043.09;5013459;28;20029;-77
2023/02/05 04:03:40;;;;;;;4.93;2.85;;;;;;;-4.29;100.00;104040.47;5013000;28;20460;-77
2023/02/05 04:06:07;;;;;;;8.13;2.65;;;;;;;-4.21;100.00;104027.34;5014222;28;20034;-77
2023/02/05 04:08:32;;;;;;;2.83;1.90;;;;;;;-4.08;100.00;104023.81;5012642;28;20453;-79
2023/02/05 04:10:58;;;;;;;5.43;2.10;;;;;;;-4.06;100.00;104002.81;4996502;28;20537;-78
2023/02/05 04:13:23;;;;;;;7.72;2.50;;;;;;;-4.05;100.00;104009.81;5013219;28;20087;-77
2023/02/05 04:15:50;;;;;;;8.35;3.05;;;;;;;-4.02;100.00;104010.69;5012157;28;20388;-78
2023/02/05 04:18:16;;;;;;;0.55;0.55;;;;;;;-3.92;100.00;104010.69;5012728;28;20088;-77
2023/02/05 04:20:42;;;;;;;4.57;1.73;;;;;;;-3.68;100.00;104028.16;5012720;28;20108;-79
2023/02/05 04:23:08;;;;;;;7.57;1.67;;;;;;;-3.59;100.00;104021.13;5012434;28;20034;-79
2023/02/05 04:25:35;;;;;;;4.80;2.00;;;;;;;-3.67;100.00;104019.41;5012752;28;20034;-78
2023/02/05 04:28:01;;;;;;;6.07;2.53;;;;;;;-3.75;100.00;104019.41;5012369;28;20038;-78
2023/02/05 04:30:29;;;;;;;5.88;1.90;;;;;;;-3.83;100.00;104026.44;4996703;28;20038;-78
2023/02/05 04:32:55;;;;;;;7.28;1.77;;;;;;;-3.90;100.00;104016.81;5012263;28;20057;-79
2023/02/05 04:35:20;;;;;;;8.43;1.95;;;;;;;-3.95;100.00;104018.56;4996527;28;20142;-79
2023/02/05 04:37:46;;;;;;;11.10;1.85;;;;;;;-3.89;100.00;104000.16;5013658;28;20037;-78
2023/02/05 04:40:12;;;;;;;11.57;2.85;;;;;;;-3.69;100.00;104024.66;4979154;28;20037;-78
2023/02/05 04:42:38;;;;;;;6.28;2.63;;;;;;;-3.79;100.00;104031.69;5012716;28;20145;-78
2023/02/05 04:45:04;;;;;;;5.38;2.28;;;;;;;-4.03;100.00;104029.09;5012063;28;20064;-79
2023/02/05 04:47:31;;;;;;;13.90;2.67;;;;;;;-4.01;100.00;104037.84;4996498;28;20041;-78
2023/02/05 04:49:57;;;;;;;10.15;2.15;;;;;;;-4.08;100.00;104036.97;4996131;28;20495;-78
2023/02/05 04:52:23;;;;;;;2.63;2.17;;;;;;;-4.02;100.00;104036.13;5011970;28;20034;-79
2023/02/05 04:54:48;;;;;;;7.07;2.05;;;;;;;-4.09;100.00;104019.47;4996602;28;20041;-78
2023/02/05 04:57:14;;;;;;;5.95;2.42;;;;;;;-3.93;100.00;104035.22;5012315;28;20531;-79
2023/02/05 04:59:40;;;;;;;4.40;2.47;;;;;;;-3.82;100.00;104033.44;4996460;28;20527;-79
2023/02/05 05:02:05;;;;;;;6.72;2.63;;;;;;;-3.79;100.00;104023.78;5012403;28;20099;-78
2023/02/05 05:04:31;;;;;;;0.88;0.88;;;;;;;-3.71;100.00;104010.63;4994952;28;20077;-78
2023/02/05 05:06:57;;;;;;;5.97;2.88;;;;;;;-3.58;100.00;104019.38;5012634;28;20030;-78
2023/02/05 05:09:24;;;;;;;6.22;2.65;;;;;;;-3.67;100.00;104016.78;5012021;28;20443;-80
2023/02/05 05:11:51;;;;;;;9.68;2.05;;;;;;;-3.68;100.00;104029.03;4996092;28;20476;-79
2023/02/05 05:14:16;;;;;;;5.25;1.92;;;;;;;-3.68;100.00;103978.19;4980354;28;20046;-78
2023/02/05 05:16:43;;;;;;;4.80;2.50;;;;;;;-3.33;100.00;104007.03;5011092;28;20029;-78
2023/02/05 05:19:11;;;;;;;6.30;2.92;;;;;;;-3.43;100.00;104015.84;5012323;28;20048;-79
2023/02/05 05:21:37;;;;;;;5.97;2.67;;;;;;;-3.60;100.00;104022.03;5012130;28;20088;-80
2023/02/05 05:24:02;;;;;;;3.42;2.38;;;;;;;-3.76;100.00;104020.28;4995022;28;20433;-79
2023/02/05 05:26:28;;;;;;;13.55;2.83;;;;;;;-3.89;100.00;104003.69;4996039;28;20025;-78
2023/02/05 05:28:55;;;;;;;7.28;3.15;;;;;;;-3.88;100.00;104017.69;4996259;28;20472;-78
2023/02/05 05:31:22;;;;;;;3.95;2.83;;;;;;;-3.95;100.00;104019.44;5014909;28;20049;-78
2023/02/05 05:33:48;;;;;;;13.25;3.22;;;;;;;-4.08;100.00;104004.56;5016219;28;20037;-77
2023/02/05 05:36:14;;;;;;;7.53;3.22;;;;;;;-4.14;100.00;104031.72;5015368;28;20109;-78
2023/02/05 05:38:40;;;;;;;12.57;3.08;;;;;;;-4.21;100.00;104019.44;4983694;28;20046;-77
2023/02/05 05:43:52;;;;;;;4.85;2.58;;;;;;;-4.23;100.00;104006.34;5015995;28;20480;-79
2023/02/05 05:46:21;;;;;;;4.85;2.97;;;;;;;-4.09;100.00;104008.94;5015858;28;20081;-78
2023/02/05 05:48:55;;;;;;;7.20;4.22;;;;;;;-4.16;100.00;103996.69;5015239;28;20100;-79
2023/02/05 05:51:21;;;;;;;7.88;3.55;;;;;;;-4.27;100.00;103980.06;4999303;28;20033;-79
2023/02/05 05:53:47;;;;;;;4.80;3.72;;;;;;;-4.17;100.00;103999.31;5014680;28;20448;-79
2023/02/05 05:56:13;;;;;;;4.55;2.10;;;;;;;-4.17;100.00;104004.59;4983031;28;20041;-78
2023/02/05 05:58:39;;;;;;;8.35;4.18;;;;;;;-4.17;100.00;103988.81;4999748;28;20038;-78
2023/02/05 06:01:06;;;;;;;7.72;3.80;;;;;;;-4.07;100.00;103991.44;5014575;28;20029;-79
2023/02/05 06:03:31;;;;;;;5.93;3.40;;;;;;;-4.15;100.00;103993.19;5004920;28;20380;-78
2023/02/05 06:06:03;;;;;;;5.38;3.38;;;;;;;-4.15;100.00;103998.44;5023670;28;20029;-77
2023/02/05 06:08:29;;;;;;;5.82;2.42;;;;;;;-4.24;100.00;103991.44;4999316;28;20092;-77
2023/02/05 06:10:55;;;;;;;3.72;1.88;;;;;;;-4.22;100.00;103996.69;4999517;28;20041;-78
2023/02/05 06:13:21;;;;;;;5.22;2.88;;;;;;;-4.20;100.00;103995.81;5030856;28;20025;-78
2023/02/05 06:15:48;;;;;;;9.43;2.72;;;;;;;-4.49;100.00;103956.41;5031409;28;20486;-78
2023/02/05 06:18:17;;;;;;;6.57;3.08;;;;;;;-4.50;100.00;103969.53;4982876;28;20037;-78
2023/02/05 06:20:44;;;;;;;3.53;1.65;;;;;;;-4.33;100.00;103969.56;4999094;28;20134;-78
2023/02/05 06:23:09;;;;;;;6.70;2.63;;;;;;;-4.06;100.00;103985.28;5014948;28;20026;-79
2023/02/05 06:25:35;;;;;;;9.63;2.80;;;;;;;-3.86;100.00;103987.91;5014154;28;20115;-77
2023/02/05 06:28:01;;;;;;;1.27;1.17;;;;;;;-3.76;100.00;103987.00;4998607;28;20034;-77
2023/02/05 06:30:26;;;;;;;3.10;1.92;;;;;;;-3.40;100.00;103990.38;4998313;28;20045;-77
2023/02/05 06:32:52;;;;;;;7.35;3.88;;;;;;;-3.21;100.00;103991.16;4998463;28;20030;-77
2023/02/05 06:35:18;;;;;;;4.13;2.63;;;;;;;-3.29;100.00;103992.09;5014289;28;20033;-79
2023/02/05 06:37:44;;;;;;;11.52;2.97;;;;;;;-3.42;100.00;103980.72;5015088;28;20034;-78
2023/02/05 06:40:10;;;;;;;12.30;3.53;;;;;;;-3.63;100.00;103958.00;5014190;28;20034;-78
2023/02/05 06:42:36;;;;;;;12.00;4.35;;;;;;;-3.59;100.00;103972.91;5014526;28;20042;-78
2023/02/05 06:45:02;;;;;;;7.30;3.25;;;;;;;-3.67;100.00;103969.44;5014436;28;20045;-79
2023/02/05 06:47:28;;;;;;;9.05;4.15;;;;;;;-3.78;100.00;103953.69;5015185;28;20034;-78
2023/02/05 06:49:53;;;;;;;9.63;3.30;;;;;;;-3.80;100.00;103965.97;4998489;28;20036;-78
2023/02/05 06:52:19;;;;;;;4.80;3.05;;;;;;;-3.91;100.00;103965.13;4981636;28;20080;-78
2023/02/05 06:54:45;;;;;;;8.55;3.00;;;;;;;-4.01;100.00;103965.13;5014592;28;20506;-80
2023/02/05 06:57:10;;;;;;;11.88;3.17;;;;;;;-4.03;100.00;103966.88;5014222;28;20460;-79
2023/02/05 06:59:36;;;;;;;7.80;2.65;;;;;;;-4.11;100.00;103952.00;4997868;28;20460;-79
2023/02/05 07:02:02;;;;;;;10.23;3.45;;;;;;;-4.08;100.00;103947.59;4998265;28;20026;-78
2023/02/05 07:04:29;;;;;;;3.40;2.50;;;;;;;-4.02;100.00;103942.38;5013448;28;20026;-78
2023/02/05 07:06:56;;;;;;;7.18;2.75;;;;;;;-3.99;100.00;103949.38;4998412;28;20025;-78
2023/02/05 07:09:22;;;;;;;4.00;1.75;;;;;;;-4.07;100.00;103938.88;4997724;28;20026;-78
2023/02/05 07:11:48;;;;;;;9.27;3.13;;;;;;;-4.03;100.00;103942.34;4996573;28;20037;-79
2023/02/05 07:14:13;;;;;;;7.35;3.35;;;;;;;-3.98;100.00;103933.56;5014160;28;20030;-76
2023/02/05 07:16:39;;;;;;;6.38;2.95;;;;;;;-3.93;100.00;103948.47;4997701;28;20029;-79
2023/02/05 07:19:12;;;;;;;2.92;2.22;;;;;;;-3.93;100.00;103966.88;4997289;28;20037;-78
2023/02/05 07:21:44;;;;;;;2.10;1.60;;;;;;;-3.90;100.00;103941.44;4997606;28;20037;-79
2023/02/05 07:24:10;;;;;;;10.32;4.15;;;;;;;-3.69;100.00;103950.16;5014095;28;20034;-78
2023/02/05 07:26:35;;;;;;;7.22;3.25;;;;;;;-3.50;100.00;103969.38;5013754;28;20037;-77
2023/02/05 07:29:02;;;;;;;5.65;2.90;;;;;;;-3.70;100.00;103953.69;5013591;28;20026;-77
2023/02/05 07:31:31;;;;;;;3.97;2.45;;;;;;;-3.64;100.00;103970.28;5013801;28;20080;-78
2023/02/05 07:33:56;;;;;;;4.18;3.08;;;;;;;-3.67;100.00;103972.06;4997247;28;20030;-77
2023/02/05 07:36:22;;;;;;;6.00;2.75;;;;;;;-3.69;100.00;103985.22;5013448;28;20026;-78
2023/02/05 07:38:48;;;;;;;3.28;1.95;;;;;;;-3.79;100.00;103970.34;4997198;28;20129;-77
2023/02/05 07:41:15;;;;;;;6.97;2.30;;;;;;;-3.79;100.00;103967.69;4997439;28;20037;-78
2023/02/05 07:43:41;;;;;;;10.82;3.63;;;;;;;-3.73;100.00;103982.59;4981630;28;20041;-77
2023/02/05 07:46:14;;;;;;;10.70;3.45;;;;;;;-3.80;100.00;103989.63;4995780;28;20384;-79
2023/02/05 07:48:39;;;;;;;9.02;2.92;;;;;;;-3.96;100.00;103987.91;5013274;28;20049;-77
2023/02/05 07:51:06;;;;;;;7.43;2.75;;;;;;;-4.10;100.00;103996.69;4980753;28;20069;-80
2023/02/05 07:53:32;;;;;;;2.20;1.70;;;;;;;-4.13;100.00;104003.69;4996727;28;20044;-79
2023/02/05 07:56:02;;;;;;;6.40;1.98;;;;;;;-4.12;100.00;103993.19;5012732;28;20030;-79
2023/02/05 07:58:27;;;;;;;10.30;3.08;;;;;;;-4.05;100.00;103984.44;5013496;28;20037;-79
2023/02/05 08:00:53;;;;;;;10.75;2.75;;;;;;;-3.96;100.00;103994.03;4997055;28;20037;-79
2023/02/05 08:03:19;;;;;;;10.40;2.67;;;;;;;-3.90;100.00;103998.41;5012699;28;20040;-79
2023/02/05 08:05:44;;;;;;;6.40;3.13;;;;;;;-3.88;100.00;103997.53;5012644;28;20061;-78
2023/02/05 08:08:11;;;;;;;4.85;2.80;;;;;;;-3.74;100.00;103991.38;4980697;28;20033;-78
2023/02/05 08:10:38;;;;;;;3.78;1.73;;;;;;;-3.59;100.00;103988.69;4996691;28;20412;-78
2023/02/05 08:13:04;;;;;;;0.68;0.68;;;;;;;-3.53;100.00;103993.94;5013236;28;20607;-78
2023/02/05 08:15:30;;;;;;;2.13;1.90;;;;;;;-3.35;100.00;103999.13;5012715;28;20116;-77
2023/02/05 08:17:55;;;;;;;11.30;2.65;;;;;;;-3.24;100.00;104000.84;5013204;28;20033;-77
2023/02/05 08:20:21;;;;;;;2.42;2.10;;;;;;;-3.16;100.00;104009.56;4980704;28;20049;-77
2023/02/05 08:22:46;;;;;;;7.53;2.60;;;;;;;-3.16;100.00;103997.28;4996779;28;20111;-77
2023/02/05 08:25:13;;;;;;;4.72;2.03;;;;;;;-2.95;100.00;104013.84;5012885;28;20033;-77
2023/02/05 08:27:41;;;;;;;3.00;2.17;;;;;;;-2.94;100.00;104015.59;4980561;28;20040;-77
2023/02/05 08:30:10;;;;;;;0.95;0.95;;;;;;;-2.93;100.00;104034.03;4996615;28;20092;-78
2023/02/05 08:32:35;;;;;;;7.07;2.10;;;;;;;-3.03;100.00;104019.16;5012724;28;20408;-78
2023/02/05 08:35:01;;;;;;;3.03;2.22;;;;;;;-2.91;100.00;104023.47;4996568;28;20034;-80
2023/02/05 08:37:29;;;;;;;6.45;2.65;;;;;;;-2.90;100.00;104023.47;4996039;28;20487;-80
2023/02/05 08:39:59;;;;;;;8.18;1.88;;;;;;;-2.81;100.00;104022.53;5011516;28;20042;-78
2023/02/05 08:42:24;;;;;;;4.40;2.17;;;;;;;-2.65;100.00;104020.69;4996288;28;20046;-78
2023/02/05 08:44:50;;;;;;;9.48;2.28;;;;;;;-2.42;100.00;104023.16;5012403;28;20038;-78
2023/02/05 08:47:20;;;;;;;2.67;1.40;;;;;;;-2.09;100.00;104021.13;4996190;28;20447;-78
2023/02/05 08:49:46;;;;;;;10.63;2.10;;;;;;;-1.63;100.00;104023.34;4996076;28;20571;-79
2023/02/05 08:52:12;;;;;;;6.50;2.00;;;;;;;-1.33;100.00;104008.91;4995928;28;20104;-77
2023/02/05 08:54:43;;;;;;;3.38;1.30;;;;;;;-1.27;100.00;104000.03;4996114;28;20038;-82
2023/02/05 08:57:09;;;;;;;4.53;1.83;;;;;;;-1.24;100.00;104002.66;5012178;28;20113;-79
2023/02/05 08:59:35;;;;;;;5.65;2.08;;;;;;;-1.17;100.00;104015.72;4996246;28;20092;-79
2023/02/05 09:02:01;;;;;;;4.35;2.05;;;;;;;-1.14;100.00;104017.47;4996286;28;20034;-79
2023/02/05 09:04:27;;;;;;;8.25;2.22;;;;;;;-0.70;100.00;104003.63;5013981;28;20033;-80
2023/02/05 09:06:53;;;;;;;5.68;2.40;;;;;;;-0.04;100.00;104029.00;5000288;28;20069;-79
2023/02/05 09:09:19;;;;;;;5.47;1.48;;;;;;;0.53;100.00;104016.50;5016390;28;20443;-78
2023/02/05 09:11:46;;;;;;;8.63;1.73;;;;;;;0.93;100.00;104031.56;4999894;28;20025;-77
2023/02/05 09:14:12;;;;;;;1.05;0.88;;;;;;;1.56;100.00;104027.50;4984077;28;20037;-78
2023/02/05 09:16:38;;;;;;;5.78;2.20;;;;;;;2.04;100.00;104025.41;4999822;28;20061;-78
2023/02/05 09:19:04;;;;;;;12.13;2.22;;;;;;;2.38;100.00;104033.34;4983935;28;20459;-78
2023/02/05 09:21:30;;;;;;;7.55;2.40;;;;;;;2.61;100.00;104030.03;4999720;28;20121;-78
2023/02/05 09:23:57;;;;;;;10.18;2.00;;;;;;;2.71;100.00;104032.44;5015738;28;20475;-78
2023/02/05 09:26:24;;;;;;;9.80;1.70;;;;;;;2.28;100.00;104023.00;5000010;28;20083;-78
2023/02/05 09:28:50;;;;;;;2.97;1.38;;;;;;;1.84;100.00;104020.59;4982647;28;20076;-78
2023/02/05 09:31:17;;;;;;;4.47;1.98;;;;;;;2.09;100.00;104042.09;4983587;28;20065;-78
2023/02/05 09:33:44;;;;;;;5.45;1.25;;;;;;;2.58;100.00;104043.41;5015886;28;20041;-76
2023/02/05 09:36:16;;;;;;;2.65;1.20;;;;;;;3.11;100.00;104048.06;4999672;28;20106;-77
2023/02/05 09:38:41;;;;;;;3.22;1.45;;;;;;;3.72;100.00;104045.25;5015871;28;20468;-78
2023/02/05 09:41:13;;;;;;;2.17;1.30;;;;;;;4.75;100.00;104055.00;5015401;28;20092;-76
2023/02/05 09:43:51;;;;;;;3.72;1.55;;;;;;;6.42;97.19;104053.56;5015531;28;20472;-77
2023/02/05 09:46:52;;;;;;;0.70;0.70;;;;;;;7.59;91.64;104042.75;5031979;28;20115;-77
2023/02/05 09:49:31;;;;;;;0.60;0.60;;;;;;;8.33;92.89;104048.78;4986291;28;20133;-77
2023/02/05 09:52:02;;;;;;;0.60;0.60;;;;;;;9.05;90.47;104049.47;4999420;28;20479;-77
2023/02/05 09:54:32;;;;;;;0.60;0.60;;;;;;;9.64;87.15;104044.31;4983361;28;20484;-78
2023/02/05 09:57:07;;;;;;;0.60;0.60;;;;;;;10.11;89.41;104025.38;5015094;28;20026;-80
2023/02/05 09:59:33;;;;;;;0.60;0.60;;;;;;;10.79;91.22;104048.13;4982576;28;20046;-79
2023/02/05 10:02:01;;;;;;;0.60;0.60;;;;;;;11.39;85.86;104045.16;4999161;28;20460;-79
2023/02/05 10:04:27;;;;;;;2.30;2.22;;;;;;;11.83;82.26;104032.38;5015276;28;20045;-79
2023/02/05 10:07:20;;;;;;;0.60;0.60;;;;;;;12.17;81.98;104014.78;5015133;28;20034;-78
2023/02/05 10:10:10;;;;;;;0.60;0.60;;;;;;;12.98;86.36;104049.47;5031642;28;20038;-78
2023/02/05 10:13:03;;;;;;;1.15;1.15;;;;;;;13.15;84.28;104037.44;4999121;28;20112;-78
2023/02/05 10:15:40;;;;;;;0.60;0.60;;;;;;;13.46;80.65;104045.16;4996041;28;20038;-78
2023/02/05 10:18:28;;;;;;;0.50;0.50;;;;;;;12.47;82.24;104040.56;5014985;28;20029;-78
2023/02/05 10:21:04;;;;;;;0.55;0.55;;;;;;;11.01;88.79;104036.88;5031092;28;20030;-78
2023/02/05 10:24:03;;;;;;;0.77;0.77;;;;;;;9.90;94.56;104032.91;4998558;28;20030;-78
2023/02/05 10:26:55;;;;;;;0.60;0.60;;;;;;;10.15;93.99;104023.34;5015064;28;20040;-77
2023/02/05 10:29:39;;;;;;;0.60;0.60;;;;;;;10.87;90.94;104002.72;5015122;28;20045;-78
2023/02/05 10:32:14;;;;;;;1.00;1.00;;;;;;;11.95;84.21;104020.78;4998702;28;20397;-78
2023/02/05 10:34:52;;;;;;;0.50;0.50;;;;;;;11.97;80.59;104017.97;5014821;28;20183;-77
2023/02/05 10:37:20;;;;;;;0.50;0.50;;;;;;;10.43;86.32;104014.50;5015697;28;20030;-78
2023/02/05 10:39:48;;;;;;;1.58;1.30;;;;;;;9.39;93.67;104009.94;4998421;28;20042;-78
2023/02/05 10:42:26;;;;;;;0.52;0.52;;;;;;;8.52;97.54;104021.03;5014574;28;20103;-78
2023/02/05 10:45:16;;;;;;;0.55;0.55;;;;;;;7.59;100.00;104015.97;5014522;28;20037;-78
2023/02/05 10:47:52;;;;;;;0.50;0.50;;;;;;;6.03;100.00;104008.94;5013971;28;20108;-78
2023/02/05 10:50:23;;;;;;;0.85;0.77;;;;;;;5.04;100.00;104019.22;4998054;28;20041;-77
2023/02/05 10:52:49;;;;;;;0.80;0.80;;;;;;;5.21;100.00;104008.78;5014603;28;20030;-76
2023/02/05 10:55:15;;;;;;;0.80;0.80;;;;;;;7.83;100.00;104001.38;4998052;28;20049;-77
2023/02/05 10:57:41;;;;;;;0.80;0.80;;;;;;;10.34;93.12;103985.47;4997787;28;20065;-77
2023/02/05 11:00:21;;;;;;;0.73;0.73;;;;;;;11.96;87.25;103989.25;4998237;28;20432;-77
2023/02/05 11:02:50;;;;;;;0.90;0.90;;;;;;;12.93;84.89;103991.38;4998101;28;20132;-77
2023/02/05 11:05:28;;;;;;;1.45;1.35;;;;;;;13.32;82.12;103995.69;5013963;28;20400;-77
2023/02/05 11:07:57;;;;;;;1.75;1.65;;;;;;;13.54;82.40;103989.50;5030488;28;20113;-77
2023/02/05 11:10:28;;;;;;;4.68;2.08;;;;;;;13.38;81.98;103983.56;5014028;28;20083;-77
2023/02/05 11:12:58;;;;;;;1.30;1.30;;;;;;;13.70;83.81;103991.91;4997728;28;20384;-77
2023/02/05 11:15:27;;;;;;;4.30;1.40;;;;;;;13.87;81.57;103987.94;5014161;28;20037;-76
2023/02/05 11:17:58;;;;;;;3.00;2.10;;;;;;;13.49;83.05;103986.28;4997713;28;20027;-77
2023/02/05 11:20:33;;;;;;;5.03;2.70;;;;;;;13.16;83.95;103986.97;5014871;28;20029;-77
2023/02/05 11:23:20;;;;;;;16.33;4.22;;;;;;;13.02;86.95;103989.81;4981739;28;20053;-76
2023/02/05 11:25:57;;;;;;;16.40;6.40;;;;;;;12.18;87.97;103977.88;5014948;28;20092;-76
2023/02/05 11:28:27;;;;;;;8.25;3.95;;;;;;;11.31;94.92;103981.97;4996631;28;20531;-76